sensor_id;sensor_type;location;lat;lon;timestamp;P1;durP1;ratioP1;P2;durP2;ratioP2
18659;SDS011;9459;50.254;19.014;2023-06-24T00:02:05;1.98;;;1.55;;
18659;SDS011;9459;50.254;19.014;2023-06-24T00:04:33;2.20;;;1.80;;
18659;SDS011;9459;50.254;19.014;2023-06-24T00:07:02;2.58;;;1.67;;
18659;SDS011;9459;50.254;19.014;2023-06-24T00:09:31;2.90;;;1.80;;
18659;SDS011;9459;50.254;19.014;2023-06-24T00:12:00;3.63;;;1.75;;
18659;SDS011;9459;50.254;19.014;2023-06-24T00:14:30;2.00;;;1.65;;
18659;SDS011;9459;50.254;19.014;2023-06-24T00:17:00;3.58;;;1.60;;
18659;SDS011;9459;50.254;19.014;2023-06-24T00:19:28;1.98;;;1.55;;
18659;SDS011;9459;50.254;19.014;2023-06-24T00:21:58;2.20;;;1.80;;
18659;SDS011;9459;50.254;19.014;2023-06-24T00:24:30;1.98;;;1.52;;
18659;SDS011;9459;50.254;19.014;2023-06-24T00:26:58;1.83;;;1.30;;
18659;SDS011;9459;50.254;19.014;2023-06-24T00:29:27;2.80;;;1.83;;
18659;SDS011;9459;50.254;19.014;2023-06-24T00:31:55;2.20;;;1.95;;
18659;SDS011;9459;50.254;19.014;2023-06-24T00:34:25;3.88;;;1.98;;
18659;SDS011;9459;50.254;19.014;2023-06-24T00:36:53;3.92;;;2.55;;
18659;SDS011;9459;50.254;19.014;2023-06-24T00:39:22;3.75;;;2.40;;
18659;SDS011;9459;50.254;19.014;2023-06-24T00:41:50;2.03;;;1.83;;
18659;SDS011;9459;50.254;19.014;2023-06-24T00:44:19;2.88;;;2.30;;
18659;SDS011;9459;50.254;19.014;2023-06-24T00:46:47;2.60;;;1.65;;
18659;SDS011;9459;50.254;19.014;2023-06-24T00:49:16;1.92;;;1.70;;
18659;SDS011;9459;50.254;19.014;2023-06-24T00:51:46;2.28;;;1.73;;
18659;SDS011;9459;50.254;19.014;2023-06-24T00:54:17;2.17;;;1.83;;
18659;SDS011;9459;50.254;19.014;2023-06-24T00:56:46;2.30;;;1.75;;
18659;SDS011;9459;50.254;19.014;2023-06-24T00:59:15;2.97;;;1.83;;
18659;SDS011;9459;50.254;19.014;2023-06-24T01:01:44;1.95;;;1.50;;
18659;SDS011;9459;50.254;19.014;2023-06-24T01:04:13;4.45;;;1.73;;
18659;SDS011;9459;50.254;19.014;2023-06-24T01:06:43;2.90;;;1.70;;
18659;SDS011;9459;50.254;19.014;2023-06-24T01:09:13;2.85;;;1.73;;
18659;SDS011;9459;50.254;19.014;2023-06-24T01:11:42;2.35;;;1.70;;
18659;SDS011;9459;50.254;19.014;2023-06-24T01:14:10;1.85;;;1.65;;
18659;SDS011;9459;50.254;19.014;2023-06-24T01:16:40;1.83;;;1.67;;
18659;SDS011;9459;50.254;19.014;2023-06-24T01:19:19;2.13;;;1.55;;
18659;SDS011;9459;50.254;19.014;2023-06-24T01:22:05;2.33;;;1.58;;
18659;SDS011;9459;50.254;19.014;2023-06-24T01:24:49;2.55;;;1.65;;
18659;SDS011;9459;50.254;19.014;2023-06-24T01:27:27;1.88;;;1.60;;
18659;SDS011;9459;50.254;19.014;2023-06-24T01:30:12;2.95;;;1.83;;
18659;SDS011;9459;50.254;19.014;2023-06-24T01:32:52;3.22;;;1.70;;
18659;SDS011;9459;50.254;19.014;2023-06-24T01:35:25;3.03;;;1.65;;
18659;SDS011;9459;50.254;19.014;2023-06-24T01:37:56;4.88;;;1.70;;
18659;SDS011;9459;50.254;19.014;2023-06-24T01:42:56;2.42;;;1.60;;
18659;SDS011;9459;50.254;19.014;2023-06-24T01:45:26;1.90;;;1.70;;
18659;SDS011;9459;50.254;19.014;2023-06-24T01:47:59;3.92;;;1.92;;
18659;SDS011;9459;50.254;19.014;2023-06-24T01:50:29;2.22;;;1.77;;
18659;SDS011;9459;50.254;19.014;2023-06-24T01:52:59;2.42;;;2.03;;
18659;SDS011;9459;50.254;19.014;2023-06-24T01:55:29;2.13;;;1.80;;
18659;SDS011;9459;50.254;19.014;2023-06-24T01:58:01;4.38;;;2.13;;
18659;SDS011;9459;50.254;19.014;2023-06-24T02:00:33;2.60;;;2.28;;
18659;SDS011;9459;50.254;19.014;2023-06-24T02:03:04;3.03;;;1.92;;
18659;SDS011;9459;50.254;19.014;2023-06-24T02:05:35;5.10;;;2.38;;
18659;SDS011;9459;50.254;19.014;2023-06-24T02:08:07;2.75;;;2.03;;
18659;SDS011;9459;50.254;19.014;2023-06-24T02:10:36;3.75;;;2.03;;
18659;SDS011;9459;50.254;19.014;2023-06-24T02:13:06;2.63;;;1.80;;
18659;SDS011;9459;50.254;19.014;2023-06-24T02:15:36;2.60;;;2.30;;
18659;SDS011;9459;50.254;19.014;2023-06-24T02:18:07;3.42;;;2.00;;
18659;SDS011;9459;50.254;19.014;2023-06-24T02:20:37;2.30;;;1.90;;
18659;SDS011;9459;50.254;19.014;2023-06-24T02:23:06;2.92;;;2.15;;
18659;SDS011;9459;50.254;19.014;2023-06-24T02:25:36;4.25;;;2.42;;
18659;SDS011;9459;50.254;19.014;2023-06-24T02:28:06;2.77;;;2.27;;
18659;SDS011;9459;50.254;19.014;2023-06-24T02:30:37;4.38;;;2.90;;
18659;SDS011;9459;50.254;19.014;2023-06-24T02:33:07;3.10;;;2.42;;
18659;SDS011;9459;50.254;19.014;2023-06-24T02:35:38;3.60;;;2.28;;
18659;SDS011;9459;50.254;19.014;2023-06-24T02:38:08;3.05;;;2.33;;
18659;SDS011;9459;50.254;19.014;2023-06-24T02:40:37;3.33;;;2.28;;
18659;SDS011;9459;50.254;19.014;2023-06-24T02:43:05;3.20;;;2.50;;
18659;SDS011;9459;50.254;19.014;2023-06-24T02:45:34;4.45;;;2.70;;
18659;SDS011;9459;50.254;19.014;2023-06-24T02:48:02;5.22;;;2.60;;
18659;SDS011;9459;50.254;19.014;2023-06-24T02:50:34;3.75;;;2.80;;
18659;SDS011;9459;50.254;19.014;2023-06-24T02:53:02;4.13;;;3.10;;
18659;SDS011;9459;50.254;19.014;2023-06-24T02:55:31;4.15;;;2.92;;
18659;SDS011;9459;50.254;19.014;2023-06-24T02:58:01;3.55;;;2.75;;
18659;SDS011;9459;50.254;19.014;2023-06-24T03:00:30;3.67;;;2.55;;
18659;SDS011;9459;50.254;19.014;2023-06-24T03:03:01;3.08;;;2.55;;
18659;SDS011;9459;50.254;19.014;2023-06-24T03:05:30;3.55;;;2.75;;
18659;SDS011;9459;50.254;19.014;2023-06-24T03:08:01;5.10;;;2.90;;
18659;SDS011;9459;50.254;19.014;2023-06-24T03:10:31;4.00;;;3.20;;
18659;SDS011;9459;50.254;19.014;2023-06-24T03:12:59;5.07;;;3.95;;
18659;SDS011;9459;50.254;19.014;2023-06-24T03:15:27;5.78;;;3.78;;
18659;SDS011;9459;50.254;19.014;2023-06-24T03:17:56;6.07;;;4.72;;
18659;SDS011;9459;50.254;19.014;2023-06-24T03:20:25;5.75;;;4.22;;
18659;SDS011;9459;50.254;19.014;2023-06-24T03:22:53;4.75;;;3.83;;
18659;SDS011;9459;50.254;19.014;2023-06-24T03:25:24;6.45;;;4.15;;
18659;SDS011;9459;50.254;19.014;2023-06-24T03:27:52;4.78;;;4.03;;
18659;SDS011;9459;50.254;19.014;2023-06-24T03:30:21;6.35;;;4.60;;
18659;SDS011;9459;50.254;19.014;2023-06-24T03:32:49;4.82;;;3.80;;
18659;SDS011;9459;50.254;19.014;2023-06-24T03:35:18;5.28;;;3.55;;
18659;SDS011;9459;50.254;19.014;2023-06-24T03:37:47;3.78;;;3.38;;
18659;SDS011;9459;50.254;19.014;2023-06-24T03:40:15;5.47;;;3.95;;
18659;SDS011;9459;50.254;19.014;2023-06-24T03:42:45;5.45;;;4.55;;
18659;SDS011;9459;50.254;19.014;2023-06-24T03:45:13;7.65;;;5.00;;
18659;SDS011;9459;50.254;19.014;2023-06-24T03:47:42;8.27;;;5.03;;
18659;SDS011;9459;50.254;19.014;2023-06-24T03:50:10;8.70;;;5.10;;
18659;SDS011;9459;50.254;19.014;2023-06-24T03:52:39;6.25;;;5.50;;
18659;SDS011;9459;50.254;19.014;2023-06-24T03:55:07;13.93;;;8.48;;
18659;SDS011;9459;50.254;19.014;2023-06-24T03:57:36;10.55;;;7.18;;
18659;SDS011;9459;50.254;19.014;2023-06-24T04:00:06;24.77;;;15.05;;
18659;SDS011;9459;50.254;19.014;2023-06-24T04:02:41;19.08;;;13.65;;
18659;SDS011;9459;50.254;19.014;2023-06-24T04:05:10;16.48;;;12.68;;
18659;SDS011;9459;50.254;19.014;2023-06-24T04:07:39;17.67;;;13.70;;
18659;SDS011;9459;50.254;19.014;2023-06-24T04:10:09;24.98;;;17.98;;
18659;SDS011;9459;50.254;19.014;2023-06-24T04:12:38;26.08;;;18.77;;
18659;SDS011;9459;50.254;19.014;2023-06-24T04:15:08;21.38;;;16.65;;
18659;SDS011;9459;50.254;19.014;2023-06-24T04:17:37;25.10;;;17.45;;
18659;SDS011;9459;50.254;19.014;2023-06-24T04:20:06;26.25;;;16.08;;
18659;SDS011;9459;50.254;19.014;2023-06-24T04:22:37;22.97;;;16.93;;
18659;SDS011;9459;50.254;19.014;2023-06-24T04:25:06;21.40;;;16.20;;
18659;SDS011;9459;50.254;19.014;2023-06-24T04:27:35;20.92;;;16.20;;
18659;SDS011;9459;50.254;19.014;2023-06-24T04:30:04;19.10;;;14.70;;
18659;SDS011;9459;50.254;19.014;2023-06-24T04:32:34;16.98;;;14.25;;
18659;SDS011;9459;50.254;19.014;2023-06-24T04:35:03;20.95;;;15.23;;
18659;SDS011;9459;50.254;19.014;2023-06-24T04:37:32;19.17;;;14.35;;
18659;SDS011;9459;50.254;19.014;2023-06-24T04:40:00;20.58;;;14.60;;
18659;SDS011;9459;50.254;19.014;2023-06-24T04:42:29;17.42;;;13.57;;
18659;SDS011;9459;50.254;19.014;2023-06-24T04:44:58;22.73;;;15.40;;
18659;SDS011;9459;50.254;19.014;2023-06-24T04:47:26;21.65;;;15.88;;
18659;SDS011;9459;50.254;19.014;2023-06-24T04:49:56;17.95;;;14.55;;
18659;SDS011;9459;50.254;19.014;2023-06-24T04:52:24;21.20;;;15.63;;
18659;SDS011;9459;50.254;19.014;2023-06-24T04:54:53;19.70;;;15.70;;
18659;SDS011;9459;50.254;19.014;2023-06-24T04:57:25;19.15;;;15.18;;
18659;SDS011;9459;50.254;19.014;2023-06-24T04:59:54;18.67;;;13.95;;
18659;SDS011;9459;50.254;19.014;2023-06-24T05:02:23;20.88;;;14.77;;
18659;SDS011;9459;50.254;19.014;2023-06-24T05:04:52;21.83;;;15.63;;
18659;SDS011;9459;50.254;19.014;2023-06-24T05:07:22;22.98;;;18.00;;
18659;SDS011;9459;50.254;19.014;2023-06-24T05:09:51;21.17;;;16.55;;
18659;SDS011;9459;50.254;19.014;2023-06-24T05:12:19;19.60;;;15.10;;
18659;SDS011;9459;50.254;19.014;2023-06-24T05:14:49;25.45;;;17.58;;
18659;SDS011;9459;50.254;19.014;2023-06-24T05:17:18;22.20;;;17.25;;
18659;SDS011;9459;50.254;19.014;2023-06-24T05:19:47;24.83;;;17.27;;
18659;SDS011;9459;50.254;19.014;2023-06-24T05:22:16;21.55;;;16.92;;
18659;SDS011;9459;50.254;19.014;2023-06-24T05:24:46;24.45;;;17.42;;
18659;SDS011;9459;50.254;19.014;2023-06-24T05:27:14;24.33;;;17.73;;
18659;SDS011;9459;50.254;19.014;2023-06-24T05:29:43;25.40;;;18.25;;
18659;SDS011;9459;50.254;19.014;2023-06-24T05:32:11;22.40;;;16.60;;
18659;SDS011;9459;50.254;19.014;2023-06-24T05:34:39;16.30;;;13.70;;
18659;SDS011;9459;50.254;19.014;2023-06-24T05:37:08;19.25;;;15.57;;
18659;SDS011;9459;50.254;19.014;2023-06-24T05:39:36;17.10;;;14.07;;
18659;SDS011;9459;50.254;19.014;2023-06-24T05:42:06;17.45;;;13.88;;
18659;SDS011;9459;50.254;19.014;2023-06-24T05:44:35;16.23;;;13.73;;
18659;SDS011;9459;50.254;19.014;2023-06-24T05:47:03;17.08;;;14.10;;
18659;SDS011;9459;50.254;19.014;2023-06-24T05:49:31;16.10;;;13.52;;
18659;SDS011;9459;50.254;19.014;2023-06-24T05:52:00;15.10;;;11.85;;
18659;SDS011;9459;50.254;19.014;2023-06-24T05:54:28;16.10;;;12.15;;
18659;SDS011;9459;50.254;19.014;2023-06-24T05:56:57;18.30;;;11.85;;
18659;SDS011;9459;50.254;19.014;2023-06-24T05:59:26;16.42;;;12.27;;
18659;SDS011;9459;50.254;19.014;2023-06-24T06:01:55;15.38;;;11.82;;
18659;SDS011;9459;50.254;19.014;2023-06-24T06:04:23;11.73;;;10.18;;
18659;SDS011;9459;50.254;19.014;2023-06-24T06:06:52;14.40;;;11.10;;
18659;SDS011;9459;50.254;19.014;2023-06-24T06:09:21;10.88;;;9.45;;
18659;SDS011;9459;50.254;19.014;2023-06-24T06:11:49;11.18;;;9.43;;
18659;SDS011;9459;50.254;19.014;2023-06-24T06:14:18;11.75;;;8.70;;
18659;SDS011;9459;50.254;19.014;2023-06-24T06:16:47;12.60;;;9.32;;
18659;SDS011;9459;50.254;19.014;2023-06-24T06:19:16;13.82;;;10.20;;
18659;SDS011;9459;50.254;19.014;2023-06-24T06:21:44;10.43;;;8.38;;
18659;SDS011;9459;50.254;19.014;2023-06-24T06:24:13;11.30;;;7.70;;
18659;SDS011;9459;50.254;19.014;2023-06-24T06:26:41;9.95;;;7.30;;
18659;SDS011;9459;50.254;19.014;2023-06-24T06:29:11;8.77;;;7.10;;
18659;SDS011;9459;50.254;19.014;2023-06-24T06:31:39;11.85;;;6.85;;
18659;SDS011;9459;50.254;19.014;2023-06-24T06:34:09;8.95;;;6.60;;
18659;SDS011;9459;50.254;19.014;2023-06-24T06:36:37;8.75;;;5.50;;
18659;SDS011;9459;50.254;19.014;2023-06-24T06:39:06;8.38;;;6.05;;
18659;SDS011;9459;50.254;19.014;2023-06-24T06:41:35;9.15;;;6.07;;
18659;SDS011;9459;50.254;19.014;2023-06-24T06:44:03;7.18;;;5.80;;
18659;SDS011;9459;50.254;19.014;2023-06-24T06:46:32;10.75;;;5.78;;
18659;SDS011;9459;50.254;19.014;2023-06-24T06:49:01;8.90;;;7.45;;
18659;SDS011;9459;50.254;19.014;2023-06-24T06:51:30;9.57;;;6.25;;
18659;SDS011;9459;50.254;19.014;2023-06-24T06:53:59;10.13;;;6.22;;
18659;SDS011;9459;50.254;19.014;2023-06-24T06:56:28;7.10;;;5.45;;
18659;SDS011;9459;50.254;19.014;2023-06-24T06:58:56;6.50;;;5.15;;
18659;SDS011;9459;50.254;19.014;2023-06-24T07:01:24;6.82;;;5.45;;
18659;SDS011;9459;50.254;19.014;2023-06-24T07:03:53;7.70;;;5.70;;
18659;SDS011;9459;50.254;19.014;2023-06-24T07:06:22;10.57;;;5.88;;
18659;SDS011;9459;50.254;19.014;2023-06-24T07:08:52;7.38;;;5.10;;
18659;SDS011;9459;50.254;19.014;2023-06-24T07:11:20;5.55;;;5.00;;
18659;SDS011;9459;50.254;19.014;2023-06-24T07:13:48;7.75;;;5.40;;
18659;SDS011;9459;50.254;19.014;2023-06-24T07:16:18;6.40;;;4.95;;
18659;SDS011;9459;50.254;19.014;2023-06-24T07:18:47;7.82;;;5.22;;
18659;SDS011;9459;50.254;19.014;2023-06-24T07:21:15;6.53;;;5.05;;
18659;SDS011;9459;50.254;19.014;2023-06-24T07:23:43;6.10;;;4.47;;
18659;SDS011;9459;50.254;19.014;2023-06-24T07:26:13;9.38;;;4.55;;
18659;SDS011;9459;50.254;19.014;2023-06-24T07:28:42;6.82;;;4.68;;
18659;SDS011;9459;50.254;19.014;2023-06-24T07:31:22;7.07;;;4.38;;
18659;SDS011;9459;50.254;19.014;2023-06-24T07:33:50;5.90;;;4.85;;
18659;SDS011;9459;50.254;19.014;2023-06-24T07:36:19;5.47;;;4.13;;
18659;SDS011;9459;50.254;19.014;2023-06-24T07:38:47;5.95;;;4.93;;
18659;SDS011;9459;50.254;19.014;2023-06-24T07:41:17;8.15;;;4.93;;
18659;SDS011;9459;50.254;19.014;2023-06-24T07:43:46;6.43;;;4.85;;
18659;SDS011;9459;50.254;19.014;2023-06-24T07:46:14;6.10;;;4.57;;
18659;SDS011;9459;50.254;19.014;2023-06-24T07:48:43;5.30;;;4.10;;
18659;SDS011;9459;50.254;19.014;2023-06-24T07:51:11;9.15;;;4.65;;
18659;SDS011;9459;50.254;19.014;2023-06-24T07:53:39;6.03;;;4.40;;
18659;SDS011;9459;50.254;19.014;2023-06-24T07:56:08;7.80;;;4.78;;
18659;SDS011;9459;50.254;19.014;2023-06-24T07:58:37;7.68;;;5.25;;
18659;SDS011;9459;50.254;19.014;2023-06-24T08:01:06;5.35;;;4.47;;
18659;SDS011;9459;50.254;19.014;2023-06-24T08:03:34;7.13;;;4.30;;
18659;SDS011;9459;50.254;19.014;2023-06-24T08:06:03;7.03;;;5.43;;
18659;SDS011;9459;50.254;19.014;2023-06-24T08:08:32;6.22;;;4.18;;
18659;SDS011;9459;50.254;19.014;2023-06-24T08:11:00;6.65;;;5.35;;
18659;SDS011;9459;50.254;19.014;2023-06-24T08:13:30;6.90;;;5.22;;
18659;SDS011;9459;50.254;19.014;2023-06-24T08:15:59;5.97;;;4.70;;
18659;SDS011;9459;50.254;19.014;2023-06-24T08:18:28;8.38;;;4.60;;
18659;SDS011;9459;50.254;19.014;2023-06-24T08:20:56;5.63;;;5.03;;
18659;SDS011;9459;50.254;19.014;2023-06-24T08:23:25;6.32;;;5.20;;
18659;SDS011;9459;50.254;19.014;2023-06-24T08:25:53;8.02;;;5.20;;
18659;SDS011;9459;50.254;19.014;2023-06-24T08:28:38;5.85;;;5.18;;
18659;SDS011;9459;50.254;19.014;2023-06-24T08:31:08;7.22;;;5.38;;
18659;SDS011;9459;50.254;19.014;2023-06-24T08:33:36;6.72;;;5.10;;
18659;SDS011;9459;50.254;19.014;2023-06-24T08:36:05;5.85;;;4.82;;
18659;SDS011;9459;50.254;19.014;2023-06-24T08:38:33;7.05;;;4.93;;
18659;SDS011;9459;50.254;19.014;2023-06-24T08:41:02;5.72;;;4.63;;
18659;SDS011;9459;50.254;19.014;2023-06-24T08:43:30;7.75;;;5.35;;
18659;SDS011;9459;50.254;19.014;2023-06-24T08:45:59;8.18;;;5.35;;
18659;SDS011;9459;50.254;19.014;2023-06-24T08:48:30;7.70;;;5.45;;
18659;SDS011;9459;50.254;19.014;2023-06-24T08:50:59;7.88;;;5.47;;
18659;SDS011;9459;50.254;19.014;2023-06-24T08:53:28;7.90;;;5.28;;
18659;SDS011;9459;50.254;19.014;2023-06-24T08:55:56;6.40;;;4.72;;
18659;SDS011;9459;50.254;19.014;2023-06-24T08:58:26;6.30;;;5.18;;
18659;SDS011;9459;50.254;19.014;2023-06-24T09:00:54;6.60;;;4.70;;
18659;SDS011;9459;50.254;19.014;2023-06-24T09:03:23;6.45;;;5.10;;
18659;SDS011;9459;50.254;19.014;2023-06-24T09:05:52;8.23;;;5.50;;
18659;SDS011;9459;50.254;19.014;2023-06-24T09:08:21;6.13;;;4.90;;
18659;SDS011;9459;50.254;19.014;2023-06-24T09:10:52;5.90;;;4.55;;
18659;SDS011;9459;50.254;19.014;2023-06-24T09:13:27;5.88;;;4.40;;
18659;SDS011;9459;50.254;19.014;2023-06-24T09:15:57;6.03;;;4.70;;
18659;SDS011;9459;50.254;19.014;2023-06-24T09:18:30;5.78;;;4.40;;
18659;SDS011;9459;50.254;19.014;2023-06-24T09:21:01;4.75;;;3.80;;
18659;SDS011;9459;50.254;19.014;2023-06-24T09:23:32;4.30;;;3.90;;
18659;SDS011;9459;50.254;19.014;2023-06-24T09:26:03;6.28;;;4.30;;
18659;SDS011;9459;50.254;19.014;2023-06-24T09:28:32;4.82;;;4.15;;
18659;SDS011;9459;50.254;19.014;2023-06-24T09:31:04;5.95;;;4.40;;
18659;SDS011;9459;50.254;19.014;2023-06-24T09:33:46;6.82;;;4.18;;
18659;SDS011;9459;50.254;19.014;2023-06-24T09:36:16;5.85;;;3.65;;
18659;SDS011;9459;50.254;19.014;2023-06-24T09:38:44;7.43;;;4.78;;
18659;SDS011;9459;50.254;19.014;2023-06-24T09:41:13;5.80;;;4.28;;
18659;SDS011;9459;50.254;19.014;2023-06-24T09:43:43;5.20;;;4.28;;
18659;SDS011;9459;50.254;19.014;2023-06-24T09:46:12;7.20;;;4.45;;
18659;SDS011;9459;50.254;19.014;2023-06-24T09:48:40;5.97;;;4.00;;
18659;SDS011;9459;50.254;19.014;2023-06-24T09:51:09;4.68;;;4.22;;
18659;SDS011;9459;50.254;19.014;2023-06-24T09:53:41;5.75;;;4.55;;
18659;SDS011;9459;50.254;19.014;2023-06-24T09:56:10;5.70;;;5.10;;
18659;SDS011;9459;50.254;19.014;2023-06-24T09:58:42;12.57;;;6.40;;
18659;SDS011;9459;50.254;19.014;2023-06-24T10:01:11;8.95;;;6.80;;
18659;SDS011;9459;50.254;19.014;2023-06-24T10:03:40;7.95;;;6.78;;
18659;SDS011;9459;50.254;19.014;2023-06-24T10:06:09;9.52;;;6.32;;
18659;SDS011;9459;50.254;19.014;2023-06-24T10:08:38;6.30;;;5.70;;
18659;SDS011;9459;50.254;19.014;2023-06-24T10:11:08;8.00;;;6.32;;
18659;SDS011;9459;50.254;19.014;2023-06-24T10:13:36;9.13;;;7.38;;
18659;SDS011;9459;50.254;19.014;2023-06-24T10:16:05;8.70;;;6.47;;
18659;SDS011;9459;50.254;19.014;2023-06-24T10:18:35;8.10;;;7.20;;
18659;SDS011;9459;50.254;19.014;2023-06-24T10:21:04;9.93;;;8.10;;
18659;SDS011;9459;50.254;19.014;2023-06-24T10:23:35;13.10;;;8.07;;
18659;SDS011;9459;50.254;19.014;2023-06-24T10:26:09;8.80;;;7.35;;
18659;SDS011;9459;50.254;19.014;2023-06-24T10:31:50;9.70;;;7.63;;
18659;SDS011;9459;50.254;19.014;2023-06-24T10:34:22;8.43;;;7.38;;
18659;SDS011;9459;50.254;19.014;2023-06-24T10:36:53;10.82;;;8.40;;
18659;SDS011;9459;50.254;19.014;2023-06-24T10:39:34;8.68;;;6.63;;
18659;SDS011;9459;50.254;19.014;2023-06-24T10:44:55;7.65;;;5.75;;
18659;SDS011;9459;50.254;19.014;2023-06-24T10:47:25;6.18;;;5.57;;
18659;SDS011;9459;50.254;19.014;2023-06-24T10:49:54;5.88;;;5.20;;
18659;SDS011;9459;50.254;19.014;2023-06-24T10:52:23;5.07;;;4.57;;
18659;SDS011;9459;50.254;19.014;2023-06-24T10:54:52;5.82;;;5.22;;
18659;SDS011;9459;50.254;19.014;2023-06-24T10:57:22;6.47;;;5.13;;
18659;SDS011;9459;50.254;19.014;2023-06-24T10:59:53;7.28;;;6.57;;
18659;SDS011;9459;50.254;19.014;2023-06-24T11:02:23;7.68;;;5.60;;
18659;SDS011;9459;50.254;19.014;2023-06-24T11:04:53;8.90;;;6.72;;
18659;SDS011;9459;50.254;19.014;2023-06-24T11:07:22;6.38;;;5.38;;
18659;SDS011;9459;50.254;19.014;2023-06-24T11:09:52;7.50;;;5.90;;
18659;SDS011;9459;50.254;19.014;2023-06-24T11:12:23;5.68;;;4.75;;
18659;SDS011;9459;50.254;19.014;2023-06-24T11:14:56;5.57;;;4.70;;
18659;SDS011;9459;50.254;19.014;2023-06-24T11:17:25;7.43;;;6.20;;
18659;SDS011;9459;50.254;19.014;2023-06-24T11:19:56;8.60;;;5.28;;
18659;SDS011;9459;50.254;19.014;2023-06-24T11:22:26;7.20;;;6.05;;
18659;SDS011;9459;50.254;19.014;2023-06-24T11:24:57;8.90;;;4.97;;
18659;SDS011;9459;50.254;19.014;2023-06-24T11:27:25;7.15;;;5.35;;
18659;SDS011;9459;50.254;19.014;2023-06-24T11:29:57;6.38;;;4.53;;
18659;SDS011;9459;50.254;19.014;2023-06-24T11:32:34;5.38;;;4.88;;
18659;SDS011;9459;50.254;19.014;2023-06-24T11:35:04;9.20;;;6.82;;
18659;SDS011;9459;50.254;19.014;2023-06-24T11:37:33;8.35;;;6.10;;
18659;SDS011;9459;50.254;19.014;2023-06-24T11:40:03;8.35;;;6.45;;
18659;SDS011;9459;50.254;19.014;2023-06-24T11:42:32;11.27;;;8.88;;
18659;SDS011;9459;50.254;19.014;2023-06-24T11:45:06;8.07;;;7.22;;
18659;SDS011;9459;50.254;19.014;2023-06-24T11:47:38;7.90;;;6.13;;
18659;SDS011;9459;50.254;19.014;2023-06-24T11:50:07;8.35;;;6.97;;
18659;SDS011;9459;50.254;19.014;2023-06-24T11:52:39;8.02;;;7.05;;
18659;SDS011;9459;50.254;19.014;2023-06-24T11:55:12;10.77;;;7.20;;
18659;SDS011;9459;50.254;19.014;2023-06-24T11:57:47;8.82;;;6.78;;
18659;SDS011;9459;50.254;19.014;2023-06-24T12:00:20;11.77;;;7.63;;
18659;SDS011;9459;50.254;19.014;2023-06-24T12:02:51;11.00;;;7.30;;
18659;SDS011;9459;50.254;19.014;2023-06-24T12:05:25;6.63;;;5.35;;
18659;SDS011;9459;50.254;19.014;2023-06-24T12:07:56;6.78;;;5.10;;
18659;SDS011;9459;50.254;19.014;2023-06-24T12:10:26;6.45;;;4.07;;
18659;SDS011;9459;50.254;19.014;2023-06-24T12:12:56;4.57;;;4.18;;
18659;SDS011;9459;50.254;19.014;2023-06-24T12:15:26;5.53;;;4.30;;
18659;SDS011;9459;50.254;19.014;2023-06-24T12:17:54;10.05;;;5.43;;
18659;SDS011;9459;50.254;19.014;2023-06-24T12:20:24;8.38;;;5.40;;
18659;SDS011;9459;50.254;19.014;2023-06-24T12:22:57;7.43;;;5.30;;
18659;SDS011;9459;50.254;19.014;2023-06-24T12:25:25;5.13;;;4.43;;
18659;SDS011;9459;50.254;19.014;2023-06-24T12:27:54;8.07;;;6.15;;
18659;SDS011;9459;50.254;19.014;2023-06-24T12:30:22;6.55;;;5.18;;
18659;SDS011;9459;50.254;19.014;2023-06-24T12:32:52;6.63;;;5.60;;
18659;SDS011;9459;50.254;19.014;2023-06-24T12:35:21;8.65;;;6.47;;
18659;SDS011;9459;50.254;19.014;2023-06-24T12:40:21;7.07;;;5.03;;
18659;SDS011;9459;50.254;19.014;2023-06-24T12:42:49;9.10;;;6.50;;
18659;SDS011;9459;50.254;19.014;2023-06-24T12:45:17;9.38;;;6.75;;
18659;SDS011;9459;50.254;19.014;2023-06-24T12:47:46;7.40;;;4.80;;
18659;SDS011;9459;50.254;19.014;2023-06-24T12:50:16;7.43;;;5.97;;
18659;SDS011;9459;50.254;19.014;2023-06-24T12:52:44;8.95;;;5.45;;
18659;SDS011;9459;50.254;19.014;2023-06-24T12:55:13;8.98;;;5.35;;
18659;SDS011;9459;50.254;19.014;2023-06-24T12:57:42;8.00;;;5.90;;
18659;SDS011;9459;50.254;19.014;2023-06-24T13:00:11;5.53;;;4.97;;
18659;SDS011;9459;50.254;19.014;2023-06-24T13:02:40;6.30;;;5.35;;
18659;SDS011;9459;50.254;19.014;2023-06-24T13:05:09;5.57;;;4.90;;
18659;SDS011;9459;50.254;19.014;2023-06-24T13:07:39;6.15;;;5.22;;
18659;SDS011;9459;50.254;19.014;2023-06-24T13:10:08;7.10;;;5.07;;
18659;SDS011;9459;50.254;19.014;2023-06-24T13:12:37;6.43;;;4.97;;
18659;SDS011;9459;50.254;19.014;2023-06-24T13:15:06;6.65;;;5.03;;
18659;SDS011;9459;50.254;19.014;2023-06-24T13:17:36;5.43;;;4.53;;
18659;SDS011;9459;50.254;19.014;2023-06-24T13:20:05;5.35;;;4.70;;
18659;SDS011;9459;50.254;19.014;2023-06-24T13:22:35;5.20;;;4.13;;
18659;SDS011;9459;50.254;19.014;2023-06-24T13:25:06;6.55;;;4.40;;
18659;SDS011;9459;50.254;19.014;2023-06-24T13:27:34;5.57;;;4.72;;
18659;SDS011;9459;50.254;19.014;2023-06-24T13:30:07;6.05;;;4.38;;
18659;SDS011;9459;50.254;19.014;2023-06-24T13:32:36;7.28;;;4.32;;
18659;SDS011;9459;50.254;19.014;2023-06-24T13:35:06;5.15;;;3.90;;
18659;SDS011;9459;50.254;19.014;2023-06-24T13:37:34;9.43;;;6.57;;
18659;SDS011;9459;50.254;19.014;2023-06-24T13:40:05;6.38;;;4.47;;
18659;SDS011;9459;50.254;19.014;2023-06-24T13:45:03;6.65;;;4.60;;
18659;SDS011;9459;50.254;19.014;2023-06-24T13:47:32;4.90;;;4.13;;
18659;SDS011;9459;50.254;19.014;2023-06-24T13:50:00;5.97;;;4.38;;
18659;SDS011;9459;50.254;19.014;2023-06-24T13:52:29;5.90;;;4.18;;
18659;SDS011;9459;50.254;19.014;2023-06-24T13:54:57;4.13;;;3.63;;
18659;SDS011;9459;50.254;19.014;2023-06-24T13:57:27;7.38;;;4.35;;
18659;SDS011;9459;50.254;19.014;2023-06-24T13:59:55;4.82;;;3.50;;
18659;SDS011;9459;50.254;19.014;2023-06-24T14:02:24;4.28;;;3.70;;
18659;SDS011;9459;50.254;19.014;2023-06-24T14:04:53;4.85;;;3.67;;
18659;SDS011;9459;50.254;19.014;2023-06-24T14:07:21;3.58;;;3.28;;
18659;SDS011;9459;50.254;19.014;2023-06-24T14:09:51;8.05;;;3.88;;
18659;SDS011;9459;50.254;19.014;2023-06-24T14:12:19;4.70;;;3.80;;
18659;SDS011;9459;50.254;19.014;2023-06-24T14:14:49;4.53;;;3.70;;
18659;SDS011;9459;50.254;19.014;2023-06-24T14:17:17;5.88;;;3.53;;
18659;SDS011;9459;50.254;19.014;2023-06-24T14:19:46;3.17;;;2.88;;
18659;SDS011;9459;50.254;19.014;2023-06-24T14:22:14;4.10;;;3.10;;
18659;SDS011;9459;50.254;19.014;2023-06-24T14:24:44;4.43;;;2.92;;
18659;SDS011;9459;50.254;19.014;2023-06-24T14:27:12;3.63;;;2.92;;
18659;SDS011;9459;50.254;19.014;2023-06-24T14:29:41;3.53;;;2.97;;
18659;SDS011;9459;50.254;19.014;2023-06-24T14:32:10;4.07;;;3.28;;
18659;SDS011;9459;50.254;19.014;2023-06-24T14:34:39;4.75;;;3.47;;
18659;SDS011;9459;50.254;19.014;2023-06-24T14:37:07;5.22;;;3.65;;
18659;SDS011;9459;50.254;19.014;2023-06-24T14:39:36;4.95;;;3.80;;
18659;SDS011;9459;50.254;19.014;2023-06-24T14:42:04;4.93;;;3.67;;
18659;SDS011;9459;50.254;19.014;2023-06-24T14:44:33;4.65;;;3.85;;
18659;SDS011;9459;50.254;19.014;2023-06-24T14:47:02;4.65;;;3.08;;
18659;SDS011;9459;50.254;19.014;2023-06-24T14:49:32;4.63;;;3.50;;
18659;SDS011;9459;50.254;19.014;2023-06-24T14:52:00;4.13;;;3.03;;
18659;SDS011;9459;50.254;19.014;2023-06-24T14:54:29;5.50;;;3.50;;
18659;SDS011;9459;50.254;19.014;2023-06-24T14:56:57;3.42;;;3.00;;
18659;SDS011;9459;50.254;19.014;2023-06-24T14:59:26;5.07;;;3.22;;
18659;SDS011;9459;50.254;19.014;2023-06-24T15:01:54;4.35;;;3.58;;
18659;SDS011;9459;50.254;19.014;2023-06-24T15:04:23;4.07;;;3.67;;
18659;SDS011;9459;50.254;19.014;2023-06-24T15:06:52;3.53;;;3.08;;
18659;SDS011;9459;50.254;19.014;2023-06-24T15:09:21;3.60;;;2.90;;
18659;SDS011;9459;50.254;19.014;2023-06-24T15:11:50;3.55;;;3.25;;